createdAt,value
2022-11-26T00:01:36.204Z,30.38
2022-11-26T00:04:04.668Z,28.23
2022-11-26T00:06:36.746Z,28.52
2022-11-26T00:09:07.467Z,29.58
2022-11-26T00:11:37.194Z,38.15
2022-11-26T00:14:05.897Z,29.23
2022-11-26T00:16:33.000Z,34.67
2022-11-26T00:19:00.090Z,29.80
2022-11-26T00:21:27.617Z,34.05
2022-11-26T00:23:55.639Z,31.25
2022-11-26T00:26:24.037Z,31.88
2022-11-26T00:28:53.328Z,34.25
2022-11-26T00:31:20.876Z,33.35
2022-11-26T00:33:48.691Z,30.80
2022-11-26T00:36:30.656Z,33.67
2022-11-26T00:39:06.054Z,25.75
2022-11-26T00:41:38.606Z,30.20
2022-11-26T00:44:17.032Z,41.63
2022-11-26T00:46:43.729Z,34.00
2022-11-26T00:49:10.312Z,33.15
2022-11-26T00:51:37.174Z,32.95
2022-11-26T00:54:04.658Z,31.08
2022-11-26T00:56:36.609Z,38.28
2022-11-26T00:59:04.999Z,33.55
2022-11-26T01:01:33.302Z,34.08
2022-11-26T01:04:03.235Z,40.17
2022-11-26T01:06:34.075Z,31.17
2022-11-26T01:09:07.694Z,31.92
2022-11-26T01:11:34.841Z,31.75
2022-11-26T01:14:02.788Z,32.05
2022-11-26T01:16:31.689Z,37.70
2022-11-26T01:19:00.805Z,38.10
2022-11-26T01:21:29.624Z,36.10
2022-11-26T01:23:57.104Z,33.55
2022-11-26T01:26:32.597Z,34.88
2022-11-26T01:28:59.874Z,44.03
2022-11-26T01:31:28.689Z,54.28
2022-11-26T01:33:58.947Z,37.85
2022-11-26T01:36:25.858Z,46.85
2022-11-26T01:38:57.746Z,40.95
2022-11-26T01:41:46.860Z,58.17
2022-11-26T01:44:20.080Z,46.60
2022-11-26T01:46:47.915Z,48.70
2022-11-26T01:49:18.993Z,39.40
2022-11-26T01:51:47.535Z,50.92
2022-11-26T01:54:16.703Z,43.25
2022-11-26T01:56:50.680Z,45.03
2022-11-26T01:59:30.265Z,36.80
2022-11-26T02:01:59.893Z,36.55
2022-11-26T02:04:29.719Z,40.72
2022-11-26T02:06:58.263Z,35.95
2022-11-26T02:09:27.212Z,37.65
2022-11-26T02:11:54.625Z,42.42
2022-11-26T02:14:24.629Z,42.72
2022-11-26T02:17:37.538Z,41.00
2022-11-26T02:20:34.184Z,45.53
2022-11-26T02:23:32.782Z,39.80
2022-11-26T02:26:36.726Z,37.25
2022-11-26T02:29:32.821Z,48.20
2022-11-26T02:32:16.999Z,43.17
2022-11-26T02:34:55.795Z,41.13
2022-11-26T02:37:30.927Z,46.72
2022-11-26T02:39:59.129Z,50.33
2022-11-26T02:42:30.102Z,53.38
2022-11-26T02:45:00.227Z,58.38
2022-11-26T02:47:29.081Z,57.88
2022-11-26T02:49:59.402Z,64.28
2022-11-26T02:52:27.910Z,57.97
2022-11-26T02:54:56.879Z,55.22
2022-11-26T02:57:27.817Z,67.78
2022-11-26T02:59:55.760Z,65.47
2022-11-26T03:02:36.423Z,72.15
2022-11-26T03:05:04.763Z,57.40
2022-11-26T03:07:34.073Z,63.25
2022-11-26T03:10:02.438Z,62.03
2022-11-26T03:12:33.549Z,60.55
2022-11-26T03:15:00.985Z,56.92
2022-11-26T03:17:28.361Z,56.78
2022-11-26T03:19:56.645Z,60.38
2022-11-26T03:22:24.270Z,54.90
2022-11-26T03:24:51.765Z,50.42
2022-11-26T03:27:19.963Z,56.33
2022-11-26T03:29:51.090Z,63.05
2022-11-26T03:32:18.606Z,51.58
2022-11-26T03:34:45.551Z,59.90
2022-11-26T03:37:12.644Z,55.05
2022-11-26T03:39:40.056Z,56.75
2022-11-26T03:42:07.641Z,58.53
2022-11-26T03:44:34.593Z,62.00
2022-11-26T03:47:01.530Z,61.13
2022-11-26T03:49:28.653Z,66.30
2022-11-26T03:51:55.831Z,63.83
2022-11-26T03:54:23.126Z,57.08
2022-11-26T03:56:50.254Z,65.65
2022-11-26T03:59:17.391Z,52.13
2022-11-26T04:01:44.743Z,49.63
2022-11-26T04:04:11.858Z,64.65
2022-11-26T04:06:38.733Z,61.75
2022-11-26T04:09:05.950Z,56.88
2022-11-26T04:11:33.088Z,63.33
2022-11-26T04:14:00.976Z,57.33
2022-11-26T04:16:27.933Z,58.33
2022-11-26T04:18:55.710Z,53.58
2022-11-26T04:21:22.878Z,63.00
2022-11-26T04:23:50.222Z,57.75
2022-11-26T04:26:17.344Z,61.00
2022-11-26T04:28:46.150Z,50.33
2022-11-26T04:31:13.312Z,59.97
2022-11-26T04:33:40.792Z,67.95
2022-11-26T04:36:08.343Z,56.28
2022-11-26T04:38:35.656Z,71.55
2022-11-26T04:41:02.726Z,59.08
2022-11-26T04:43:30.288Z,50.20
2022-11-26T04:45:57.367Z,51.35
2022-11-26T04:48:25.091Z,51.78
2022-11-26T04:50:52.172Z,58.78
2022-11-26T04:53:22.134Z,40.72
2022-11-26T04:55:55.458Z,45.63
2022-11-26T04:58:22.733Z,36.72
2022-11-26T05:00:51.261Z,39.95
2022-11-26T05:03:20.660Z,43.88
2022-11-26T05:05:49.683Z,39.38
2022-11-26T05:08:16.529Z,37.85
2022-11-26T05:10:44.501Z,36.88
2022-11-26T05:13:12.050Z,37.88
2022-11-26T05:15:39.410Z,43.60
2022-11-26T05:18:06.680Z,44.08
2022-11-26T05:20:33.719Z,33.47
2022-11-26T05:23:00.551Z,35.15
2022-11-26T05:25:29.670Z,34.65
2022-11-26T05:27:56.789Z,34.30
2022-11-26T05:30:23.638Z,28.58
2022-11-26T05:32:50.676Z,37.22
2022-11-26T05:35:17.814Z,28.30
2022-11-26T05:37:47.653Z,33.30
2022-11-26T05:40:14.637Z,40.78
2022-11-26T05:42:42.136Z,35.33
2022-11-26T05:45:09.412Z,33.13
2022-11-26T05:47:39.202Z,29.17
2022-11-26T05:50:06.889Z,34.35
2022-11-26T05:52:33.733Z,32.88
2022-11-26T05:55:00.979Z,26.98
2022-11-26T05:57:27.963Z,32.63
2022-11-26T05:59:55.055Z,35.05
2022-11-26T06:02:22.388Z,33.72
2022-11-26T06:04:49.817Z,40.88
2022-11-26T06:07:16.986Z,33.15
2022-11-26T06:09:44.490Z,36.63
2022-11-26T06:12:16.567Z,29.63
2022-11-26T06:14:45.025Z,34.20
2022-11-26T06:17:12.733Z,36.30
2022-11-26T06:19:40.994Z,37.72
2022-11-26T06:22:08.331Z,32.08
2022-11-26T06:24:35.402Z,36.78
2022-11-26T06:27:03.042Z,31.23
2022-11-26T06:29:30.417Z,31.55
2022-11-26T06:31:57.577Z,33.53
2022-11-26T06:34:24.489Z,28.98
2022-11-26T06:36:51.845Z,31.40
2022-11-26T06:39:20.331Z,37.45
2022-11-26T06:41:47.248Z,27.38
2022-11-26T06:44:15.057Z,33.45
2022-11-26T06:46:44.441Z,27.65
2022-11-26T06:49:11.890Z,30.20
2022-11-26T06:51:38.753Z,31.10
2022-11-26T06:54:05.369Z,32.13
2022-11-26T06:56:32.078Z,32.28
2022-11-26T06:58:59.123Z,26.63
2022-11-26T07:01:26.708Z,27.85
2022-11-26T07:03:53.601Z,28.73
2022-11-26T07:06:21.610Z,22.58
2022-11-26T07:08:48.828Z,39.92
2022-11-26T07:11:19.168Z,26.63
2022-11-26T07:13:45.821Z,32.60
2022-11-26T07:16:12.839Z,39.15
2022-11-26T07:18:39.608Z,35.88
2022-11-26T07:21:08.414Z,37.55
2022-11-26T07:23:35.084Z,26.63
2022-11-26T07:26:02.726Z,27.90
2022-11-26T07:28:29.436Z,31.00
2022-11-26T07:31:02.623Z,30.40
2022-11-26T07:33:29.448Z,25.92
2022-11-26T07:36:02.816Z,31.67
2022-11-26T07:38:30.036Z,37.83
2022-11-26T07:41:03.479Z,31.42
2022-11-26T07:43:30.065Z,30.17
2022-11-26T07:45:56.684Z,33.47
2022-11-26T07:48:23.284Z,34.50
2022-11-26T07:50:50.367Z,26.02
2022-11-26T07:53:16.933Z,22.27
2022-11-26T07:55:43.602Z,29.48
2022-11-26T07:58:10.232Z,28.05
2022-11-26T08:00:36.758Z,26.42
2022-11-26T08:03:03.395Z,36.55
2022-11-26T08:05:30.056Z,28.10
2022-11-26T08:07:56.750Z,28.58
2022-11-26T08:10:23.728Z,28.17
2022-11-26T08:12:50.431Z,27.45
2022-11-26T08:15:17.054Z,22.75
2022-11-26T08:17:43.628Z,22.73
2022-11-26T08:20:10.851Z,23.77
2022-11-26T08:22:37.375Z,21.38
2022-11-26T08:25:04.145Z,32.67
2022-11-26T08:27:33.226Z,26.50
2022-11-26T08:29:59.800Z,26.23
2022-11-26T08:32:26.356Z,21.33
2022-11-26T08:34:53.006Z,22.15
2022-11-26T08:37:19.613Z,29.50
2022-11-26T08:39:46.135Z,23.50
2022-11-26T08:42:12.742Z,23.35
2022-11-26T08:44:39.651Z,18.25
2022-11-26T08:47:06.593Z,28.80
2022-11-26T08:49:33.187Z,21.98
2022-11-26T08:52:00.033Z,22.83
2022-11-26T08:54:26.730Z,20.35
2022-11-26T08:56:54.741Z,21.73
2022-11-26T08:59:24.214Z,15.13
2022-11-26T09:01:51.053Z,24.02
2022-11-26T09:04:17.783Z,17.52
2022-11-26T09:06:44.421Z,22.00
2022-11-26T09:09:14.386Z,20.48
2022-11-26T09:11:50.658Z,19.73
2022-11-26T09:14:19.875Z,22.42
2022-11-26T09:16:46.756Z,17.70
2022-11-26T09:19:15.242Z,16.65
2022-11-26T09:21:41.968Z,22.90
2022-11-26T09:24:08.625Z,28.88
2022-11-26T09:26:35.677Z,23.00
2022-11-26T09:29:02.291Z,22.10
2022-11-26T09:31:29.327Z,28.70
2022-11-26T09:33:57.512Z,17.77
2022-11-26T09:36:24.214Z,22.90
2022-11-26T09:38:57.414Z,26.52
2022-11-26T09:41:35.886Z,19.92
2022-11-26T09:44:47.728Z,14.82
2022-11-26T09:47:16.121Z,16.55
2022-11-26T09:49:54.667Z,17.17
2022-11-26T09:52:23.128Z,16.33
2022-11-26T09:54:53.981Z,20.15
2022-11-26T09:57:26.484Z,18.35
2022-11-26T09:59:54.409Z,19.23
2022-11-26T10:02:21.104Z,24.73
2022-11-26T10:04:50.552Z,15.35
2022-11-26T10:07:32.700Z,24.85
2022-11-26T10:10:24.839Z,21.17
2022-11-26T10:13:19.173Z,20.30
2022-11-26T10:15:52.127Z,14.52
2022-11-26T10:18:40.364Z,18.95
2022-11-26T10:21:56.984Z,18.23
2022-11-26T10:24:27.395Z,19.33
2022-11-26T10:26:55.023Z,21.98
2022-11-26T10:29:25.478Z,15.45
2022-11-26T10:32:01.015Z,17.33
2022-11-26T10:34:39.345Z,22.77
2022-11-26T10:37:06.834Z,18.60
2022-11-26T10:39:33.493Z,15.48
2022-11-26T10:42:20.401Z,17.30
2022-11-26T10:44:48.547Z,15.77
2022-11-26T10:47:31.636Z,25.63
2022-11-26T10:50:10.299Z,14.23
2022-11-26T10:52:46.454Z,19.23
2022-11-26T10:55:18.552Z,26.80
2022-11-26T10:57:50.733Z,21.25
2022-11-26T11:00:39.791Z,23.83
2022-11-26T11:03:16.771Z,23.13
2022-11-26T11:05:44.662Z,18.30
2022-11-26T11:08:32.301Z,20.50
2022-11-26T11:11:00.753Z,17.60
2022-11-26T11:13:44.860Z,24.33
2022-11-26T11:16:12.760Z,24.15
2022-11-26T11:18:58.118Z,25.98
2022-11-26T11:21:30.054Z,21.48
2022-11-26T11:24:15.237Z,23.20
2022-11-26T11:26:44.439Z,24.13
2022-11-26T11:29:35.808Z,25.38
2022-11-26T11:32:05.159Z,18.02
2022-11-26T11:34:41.464Z,21.60
2022-11-26T11:37:21.407Z,23.95
2022-11-26T11:40:04.225Z,20.90
2022-11-26T11:42:32.489Z,21.50
2022-11-26T11:45:04.188Z,30.63
2022-11-26T11:47:37.107Z,26.23
2022-11-26T11:50:23.431Z,24.50
2022-11-26T11:53:27.419Z,29.05
2022-11-26T11:56:37.315Z,23.85
2022-11-26T11:59:59.959Z,22.90
2022-11-26T12:03:05.387Z,20.15
2022-11-26T12:05:38.764Z,14.60
2022-11-26T12:08:14.514Z,22.70
2022-11-26T12:11:04.669Z,18.30
2022-11-26T12:13:56.258Z,23.67
2022-11-26T12:16:25.301Z,32.22
2022-11-26T12:18:53.897Z,19.75
2022-11-26T12:22:02.419Z,24.55
2022-11-26T12:24:28.997Z,21.65
2022-11-26T12:27:00.448Z,25.13
2022-11-26T12:29:37.722Z,21.30
2022-11-26T12:32:17.057Z,19.17
2022-11-26T12:34:55.234Z,20.10
2022-11-26T12:37:32.122Z,18.83
2022-11-26T12:40:08.113Z,19.98
2022-11-26T12:42:42.321Z,12.18
2022-11-26T12:45:34.847Z,18.20
2022-11-26T12:48:06.143Z,15.13
2022-11-26T12:50:39.742Z,13.25
2022-11-26T12:53:47.890Z,8.90
2022-11-26T12:56:20.772Z,23.15
2022-11-26T12:58:50.154Z,15.85
2022-11-26T13:01:16.816Z,13.68
2022-11-26T13:03:43.798Z,24.40
2022-11-26T13:06:19.392Z,14.40
2022-11-26T13:09:09.367Z,10.20
2022-11-26T13:11:56.170Z,14.30
2022-11-26T13:15:15.383Z,16.52
2022-11-26T13:17:44.205Z,22.92
2022-11-26T13:20:29.883Z,17.75
2022-11-26T13:23:23.968Z,21.92
2022-11-26T13:26:11.188Z,17.58
2022-11-26T13:29:02.237Z,18.35
2022-11-26T13:31:47.253Z,11.52
2022-11-26T13:34:19.162Z,18.08
2022-11-26T13:37:16.601Z,14.20
2022-11-26T13:40:08.306Z,11.90
2022-11-26T13:43:04.643Z,21.60
2022-11-26T13:45:59.355Z,14.52
2022-11-26T13:48:42.229Z,12.98
2022-11-26T13:51:32.670Z,12.00
2022-11-26T13:54:31.371Z,14.35
2022-11-26T13:57:04.962Z,10.00
2022-11-26T13:59:31.968Z,13.77
2022-11-26T14:01:58.613Z,16.52
2022-11-26T14:04:26.436Z,15.45
2022-11-26T14:07:05.109Z,21.08
2022-11-26T14:09:55.569Z,11.73
2022-11-26T14:12:24.202Z,23.15
2022-11-26T14:14:51.500Z,14.75
2022-11-26T14:17:32.463Z,22.02
2022-11-26T14:20:02.148Z,20.05
2022-11-26T14:22:34.276Z,22.42
2022-11-26T14:25:07.463Z,29.10
2022-11-26T14:27:35.198Z,23.45
2022-11-26T14:30:08.449Z,25.13
2022-11-26T14:32:39.767Z,23.02
2022-11-26T14:35:33.573Z,31.92
2022-11-26T14:38:03.053Z,21.90
2022-11-26T14:40:32.303Z,22.65
2022-11-26T14:43:22.566Z,23.83
2022-11-26T14:46:05.069Z,24.48
2022-11-26T14:48:33.167Z,25.23
2022-11-26T14:51:00.635Z,27.92
2022-11-26T14:53:30.666Z,24.35
2022-11-26T14:55:57.651Z,26.10
2022-11-26T14:58:36.050Z,44.28
2022-11-26T15:01:07.503Z,23.35
2022-11-26T15:03:34.618Z,28.10
2022-11-26T15:06:01.350Z,28.98
2022-11-26T15:08:29.464Z,29.55
2022-11-26T15:11:05.860Z,35.50
2022-11-26T15:13:41.503Z,22.52
2022-11-26T15:16:30.856Z,21.35
2022-11-26T15:18:59.678Z,15.98
2022-11-26T15:21:27.477Z,20.38
2022-11-26T15:23:57.894Z,18.55
2022-11-26T15:26:27.919Z,21.90
2022-11-26T15:28:55.236Z,23.50
2022-11-26T15:31:22.085Z,24.67
2022-11-26T15:33:51.416Z,25.20
2022-11-26T15:36:19.223Z,21.02
2022-11-26T15:39:03.702Z,20.33
2022-11-26T15:41:31.029Z,16.13
2022-11-26T15:43:59.839Z,22.40
2022-11-26T15:46:40.017Z,13.63
2022-11-26T15:49:10.361Z,17.95
2022-11-26T15:51:51.699Z,15.02
2022-11-26T15:54:49.519Z,17.92
2022-11-26T15:57:28.891Z,18.27
2022-11-26T15:59:59.889Z,14.75
2022-11-26T16:02:28.679Z,20.00
2022-11-26T16:04:57.508Z,19.63
2022-11-26T16:07:29.541Z,21.63
2022-11-26T16:10:19.944Z,18.77
2022-11-26T16:13:06.680Z,21.25
2022-11-26T16:15:35.594Z,16.10
2022-11-26T16:20:49.610Z,17.90
2022-11-26T16:23:22.800Z,18.20
2022-11-26T16:26:09.692Z,16.30
2022-11-26T16:28:37.358Z,18.25
2022-11-26T16:31:04.732Z,15.43
2022-11-26T16:33:34.389Z,19.15
2022-11-26T16:36:01.892Z,15.43
2022-11-26T16:38:29.401Z,19.85
2022-11-26T16:41:05.464Z,14.20
2022-11-26T16:43:34.876Z,15.57
2022-11-26T16:46:02.294Z,21.25
2022-11-26T16:48:29.487Z,16.17
2022-11-26T16:51:00.115Z,19.38
2022-11-26T16:53:27.125Z,26.30
2022-11-26T16:55:54.582Z,20.02
2022-11-26T16:58:27.243Z,25.27
2022-11-26T17:00:54.923Z,23.83
2022-11-26T17:03:25.006Z,25.25
2022-11-26T17:05:55.906Z,25.63
2022-11-26T17:08:22.984Z,21.40
2022-11-26T17:10:51.039Z,29.50
2022-11-26T17:13:18.421Z,17.80
2022-11-26T17:18:28.996Z,21.98
2022-11-26T17:20:55.711Z,22.45
2022-11-26T17:23:22.410Z,24.90
2022-11-26T17:25:52.677Z,23.85
2022-11-26T17:28:23.335Z,24.35
2022-11-26T17:30:50.733Z,19.88
2022-11-26T17:33:17.903Z,21.73
2022-11-26T17:35:44.609Z,27.27
2022-11-26T17:38:17.181Z,22.23
2022-11-26T17:40:44.707Z,34.38
2022-11-26T17:43:11.397Z,32.45
2022-11-26T17:45:38.912Z,22.17
2022-11-26T17:48:06.055Z,25.42
2022-11-26T17:50:33.095Z,25.60
2022-11-26T17:52:59.780Z,25.10
2022-11-26T17:55:27.356Z,27.52
2022-11-26T17:57:55.399Z,24.50
2022-11-26T18:00:28.529Z,25.73
2022-11-26T18:02:55.451Z,32.67
2022-11-26T18:05:22.713Z,36.95
2022-11-26T18:07:50.532Z,27.48
2022-11-26T18:10:18.900Z,23.60
2022-11-26T18:12:45.618Z,24.88
2022-11-26T18:15:20.767Z,25.45
2022-11-26T18:17:50.968Z,25.35
2022-11-26T18:20:19.571Z,25.92
2022-11-26T18:22:47.029Z,23.13
2022-11-26T18:25:14.108Z,23.58
2022-11-26T18:27:40.922Z,29.33
2022-11-26T18:30:09.335Z,25.30
2022-11-26T18:32:41.474Z,22.67
2022-11-26T18:35:11.876Z,22.70
2022-11-26T18:37:39.802Z,25.50
2022-11-26T18:40:08.069Z,23.30
2022-11-26T18:42:38.510Z,22.75
2022-11-26T18:45:09.188Z,25.02
2022-11-26T18:47:35.882Z,26.52
2022-11-26T18:50:02.486Z,27.33
2022-11-26T18:52:31.268Z,26.73
2022-11-26T18:54:58.677Z,19.25
2022-11-26T18:57:25.271Z,26.25
2022-11-26T18:59:51.892Z,31.63
2022-11-26T19:02:18.772Z,21.08
2022-11-26T19:04:45.371Z,31.52
2022-11-26T19:07:13.015Z,17.63
2022-11-26T19:09:40.359Z,20.90
2022-11-26T19:12:07.361Z,32.83
2022-11-26T19:14:33.953Z,23.73
2022-11-26T19:17:00.820Z,18.25
2022-11-26T19:19:28.803Z,26.60
2022-11-26T19:22:01.017Z,23.40
2022-11-26T19:24:27.913Z,21.75
2022-11-26T19:26:54.533Z,27.65
2022-11-26T19:29:21.489Z,29.35
2022-11-26T19:31:48.146Z,29.23
2022-11-26T19:34:15.473Z,24.23
2022-11-26T19:36:42.456Z,25.52
2022-11-26T19:39:09.100Z,28.67
2022-11-26T19:41:35.697Z,19.77
2022-11-26T19:44:04.127Z,17.10
2022-11-26T19:46:31.439Z,34.75
2022-11-26T19:48:58.270Z,19.27
2022-11-26T19:51:26.506Z,27.75
2022-11-26T19:53:55.133Z,26.67
2022-11-26T19:56:27.291Z,29.90
2022-11-26T19:58:54.497Z,19.30
2022-11-26T20:01:22.245Z,26.85
2022-11-26T20:03:49.493Z,23.77
2022-11-26T20:06:21.668Z,27.13
2022-11-26T20:08:49.421Z,23.15
2022-11-26T20:11:17.628Z,30.30
2022-11-26T20:13:45.366Z,23.67
2022-11-26T20:16:16.947Z,31.20
2022-11-26T20:18:44.139Z,25.38
2022-11-26T20:21:13.786Z,27.95
2022-11-26T20:23:40.526Z,25.98
2022-11-26T20:26:34.363Z,31.55
2022-11-26T20:29:04.190Z,30.15
2022-11-26T20:31:31.363Z,27.52
2022-11-26T20:33:58.201Z,32.88
2022-11-26T20:36:24.869Z,28.98
2022-11-26T20:38:53.182Z,36.53
2022-11-26T20:41:19.981Z,21.30
2022-11-26T20:43:46.893Z,32.15
2022-11-26T20:46:14.611Z,37.47
2022-11-26T20:48:43.120Z,28.20
2022-11-26T20:51:14.361Z,26.38
2022-11-26T20:53:42.434Z,24.38
2022-11-26T20:56:09.329Z,30.73
2022-11-26T20:58:36.048Z,34.67
2022-11-26T21:01:05.964Z,28.13
2022-11-26T21:03:32.596Z,27.77
2022-11-26T21:06:03.048Z,26.05
2022-11-26T21:08:29.835Z,32.40
2022-11-26T21:10:56.716Z,26.83
2022-11-26T21:13:23.362Z,34.33
2022-11-26T21:15:51.780Z,30.67
2022-11-26T21:18:18.547Z,37.50
2022-11-26T21:20:45.280Z,26.85
2022-11-26T21:23:13.285Z,29.83
2022-11-26T21:25:43.470Z,26.73
2022-11-26T21:28:10.873Z,25.00
2022-11-26T21:30:41.743Z,31.13
2022-11-26T21:33:09.678Z,38.08
2022-11-26T21:35:37.259Z,28.35
2022-11-26T21:38:04.488Z,30.73
2022-11-26T21:40:32.454Z,34.58
2022-11-26T21:43:01.815Z,31.08
2022-11-26T21:48:03.692Z,26.70
2022-11-26T21:50:30.948Z,27.73
2022-11-26T21:52:57.561Z,28.25
2022-11-26T21:55:24.261Z,20.50
2022-11-26T21:57:50.924Z,31.90
2022-11-26T22:00:18.278Z,28.60
2022-11-26T22:02:44.996Z,21.00
2022-11-26T22:05:11.581Z,31.63
2022-11-26T22:07:38.274Z,23.70
2022-11-26T22:10:07.548Z,29.83
2022-11-26T22:12:34.168Z,28.70
2022-11-26T22:15:00.773Z,24.02
2022-11-26T22:17:27.490Z,33.35
2022-11-26T22:19:54.084Z,27.30
2022-11-26T22:22:20.776Z,28.45
2022-11-26T22:24:49.435Z,30.40
2022-11-26T22:27:16.008Z,33.13
2022-11-26T22:29:42.670Z,33.80
2022-11-26T22:32:09.319Z,22.98
2022-11-26T22:34:36.127Z,31.70
2022-11-26T22:37:02.863Z,29.63
2022-11-26T22:39:31.878Z,32.40
2022-11-26T22:41:58.480Z,39.80
2022-11-26T22:44:25.131Z,30.40
2022-11-26T22:46:51.692Z,35.17
2022-11-26T22:49:19.066Z,33.83
2022-11-26T22:51:47.455Z,36.40
2022-11-26T22:54:15.774Z,35.63
2022-11-26T22:56:42.454Z,29.10
2022-11-26T22:59:11.539Z,35.00
2022-11-26T23:01:38.642Z,26.45
2022-11-26T23:04:07.891Z,39.88
2022-11-26T23:06:35.857Z,33.80
2022-11-26T23:09:04.633Z,27.27
2022-11-26T23:11:36.314Z,26.92
2022-11-26T23:14:05.136Z,33.20
2022-11-26T23:16:31.951Z,31.05
2022-11-26T23:18:58.695Z,27.67
2022-11-26T23:21:31.025Z,28.63
2022-11-26T23:23:58.144Z,29.60
2022-11-26T23:26:28.056Z,32.22
2022-11-26T23:28:55.983Z,36.97
2022-11-26T23:31:25.175Z,31.60
2022-11-26T23:33:52.351Z,37.08
2022-11-26T23:36:19.715Z,30.80
2022-11-26T23:38:46.282Z,33.97
2022-11-26T23:41:12.876Z,28.88
2022-11-26T23:43:39.948Z,26.65
2022-11-26T23:46:31.158Z,29.58
2022-11-26T23:48:57.884Z,27.65
2022-11-26T23:51:26.779Z,38.75
2022-11-26T23:53:54.251Z,33.78
2022-11-26T23:56:28.233Z,30.15
2022-11-26T23:58:58.743Z,26.95
